createdAt,value
2023-04-09T00:00:22.449Z,2.22
2023-04-09T00:01:25.157Z,2.90
2023-04-09T00:02:28.105Z,2.33
2023-04-09T00:03:31.451Z,2.20
2023-04-09T00:04:34.487Z,2.38
2023-04-09T00:05:41.346Z,2.17
2023-04-09T00:06:44.157Z,2.67
2023-04-09T00:07:47.926Z,2.40
2023-04-09T00:08:51.172Z,2.40
2023-04-09T00:09:54.149Z,2.22
2023-04-09T00:10:58.604Z,3.03
2023-04-09T00:12:02.355Z,2.10
2023-04-09T00:13:05.171Z,1.67
2023-04-09T00:14:08.030Z,2.50
2023-04-09T00:15:15.216Z,2.28
2023-04-09T00:16:27.146Z,2.50
2023-04-09T00:17:30.002Z,2.47
2023-04-09T00:18:32.798Z,2.38
2023-04-09T00:19:35.682Z,2.10
2023-04-09T00:20:38.465Z,2.33
2023-04-09T00:21:41.460Z,2.33
2023-04-09T00:22:44.274Z,2.63
2023-04-09T00:23:47.075Z,2.67
2023-04-09T00:24:49.802Z,2.47
2023-04-09T00:25:52.578Z,2.50
2023-04-09T00:26:55.912Z,2.30
2023-04-09T00:27:59.791Z,2.55
2023-04-09T00:29:02.659Z,2.10
2023-04-09T00:30:06.108Z,2.55
2023-04-09T00:31:10.092Z,2.53
2023-04-09T00:32:12.955Z,2.40
2023-04-09T00:33:15.796Z,2.15
2023-04-09T00:34:18.830Z,1.98
2023-04-09T00:35:22.033Z,2.80
2023-04-09T00:36:26.627Z,2.75
2023-04-09T00:37:29.840Z,2.58
2023-04-09T00:38:32.813Z,2.65
2023-04-09T00:39:35.601Z,2.60
2023-04-09T00:40:38.860Z,2.20
2023-04-09T00:41:41.729Z,2.80
2023-04-09T00:42:44.570Z,2.30
2023-04-09T00:43:47.323Z,2.97
2023-04-09T00:44:50.348Z,2.60
2023-04-09T00:45:53.913Z,2.58
2023-04-09T00:46:59.060Z,2.53
2023-04-09T00:48:02.048Z,2.40
2023-04-09T00:49:05.724Z,2.45
2023-04-09T00:50:08.900Z,2.65
2023-04-09T00:51:11.843Z,2.58
2023-04-09T00:52:14.716Z,2.35
2023-04-09T00:53:18.334Z,2.25
2023-04-09T00:54:21.332Z,2.42
2023-04-09T00:55:30.598Z,2.45
2023-04-09T00:56:33.794Z,2.08
2023-04-09T00:57:36.702Z,2.35
2023-04-09T00:58:41.995Z,2.38
2023-04-09T00:59:45.704Z,2.35
2023-04-09T01:00:48.548Z,2.50
2023-04-09T01:01:51.352Z,2.58
2023-04-09T01:02:57.813Z,2.25
2023-04-09T01:04:01.351Z,2.40
2023-04-09T01:05:04.578Z,2.22
2023-04-09T01:06:37.196Z,2.80
2023-04-09T01:08:01.337Z,2.20
2023-04-09T01:09:15.677Z,2.60
2023-04-09T01:10:41.645Z,2.22
2023-04-09T01:11:52.024Z,2.15
2023-04-09T01:13:18.901Z,2.42
2023-04-09T01:14:30.248Z,2.50
2023-04-09T01:15:38.866Z,2.40
2023-04-09T01:16:53.058Z,2.42
2023-04-09T01:18:33.043Z,2.55
2023-04-09T01:19:44.241Z,2.47
2023-04-09T01:21:00.961Z,2.45
2023-04-09T01:22:09.725Z,3.33
2023-04-09T01:23:47.510Z,2.67
2023-04-09T01:25:04.995Z,2.30
2023-04-09T01:26:54.516Z,2.30
2023-04-09T01:28:22.887Z,2.60
2023-04-09T01:29:30.745Z,2.67
2023-04-09T01:30:33.874Z,2.45
2023-04-09T01:31:39.328Z,2.50
2023-04-09T01:32:44.177Z,2.20
2023-04-09T01:33:47.906Z,2.67
2023-04-09T01:34:51.851Z,2.60
2023-04-09T01:35:55.580Z,2.40
2023-04-09T01:37:01.250Z,2.15
2023-04-09T01:38:04.941Z,2.42
2023-04-09T01:39:09.057Z,2.35
2023-04-09T01:40:12.309Z,2.10
2023-04-09T01:41:19.252Z,2.42
2023-04-09T01:42:22.290Z,2.30
2023-04-09T01:43:26.568Z,2.53
2023-04-09T01:44:29.892Z,2.65
2023-04-09T01:45:34.346Z,3.03
2023-04-09T01:46:39.624Z,2.58
2023-04-09T01:47:42.899Z,3.05
2023-04-09T01:48:47.018Z,2.83
2023-04-09T01:49:50.459Z,2.22
2023-04-09T01:50:54.047Z,2.63
2023-04-09T01:51:57.021Z,2.50
2023-04-09T01:53:01.820Z,2.55
2023-04-09T01:54:05.069Z,2.40
2023-04-09T01:55:13.127Z,2.58
2023-04-09T01:56:16.137Z,2.80
2023-04-09T01:57:19.022Z,2.45
2023-04-09T01:58:21.845Z,2.72
2023-04-09T01:59:24.791Z,2.47
2023-04-09T02:00:34.976Z,2.58
2023-04-09T02:01:52.247Z,2.70
2023-04-09T02:03:13.532Z,2.65
2023-04-09T02:04:41.654Z,2.53
2023-04-09T02:05:50.600Z,2.00
2023-04-09T02:07:16.445Z,2.47
2023-04-09T02:08:21.806Z,2.10
2023-04-09T02:09:25.258Z,2.70
2023-04-09T02:10:32.259Z,2.95
2023-04-09T02:11:38.766Z,2.75
2023-04-09T02:12:46.849Z,2.85
2023-04-09T02:13:52.779Z,2.60
2023-04-09T02:15:16.072Z,2.65
2023-04-09T02:16:19.451Z,3.25
2023-04-09T02:17:22.382Z,2.65
2023-04-09T02:18:27.793Z,2.65
2023-04-09T02:19:44.940Z,2.30
2023-04-09T02:20:47.716Z,2.33
2023-04-09T02:21:50.520Z,2.72
2023-04-09T02:22:53.373Z,2.42
2023-04-09T02:23:56.477Z,2.53
2023-04-09T02:25:00.133Z,2.55
2023-04-09T02:26:02.941Z,2.63
2023-04-09T02:27:06.441Z,2.85
2023-04-09T02:28:09.229Z,2.33
2023-04-09T02:29:12.065Z,3.17
2023-04-09T02:30:14.819Z,2.50
2023-04-09T02:31:17.793Z,2.45
2023-04-09T02:32:20.802Z,2.67
2023-04-09T02:33:24.017Z,2.97
2023-04-09T02:34:28.236Z,3.25
2023-04-09T02:35:31.371Z,2.92
2023-04-09T02:36:34.210Z,3.53
2023-04-09T02:37:37.061Z,3.42
2023-04-09T02:38:43.505Z,2.92
2023-04-09T02:39:46.275Z,2.50
2023-04-09T02:40:49.073Z,3.72
2023-04-09T02:41:53.048Z,3.50
2023-04-09T02:42:56.533Z,3.67
2023-04-09T02:43:59.408Z,3.92
2023-04-09T02:45:02.380Z,3.80
2023-04-09T02:46:07.861Z,3.83
2023-04-09T02:47:11.430Z,3.55
2023-04-09T02:48:14.984Z,4.72
2023-04-09T02:49:20.116Z,3.72
2023-04-09T02:50:22.992Z,3.95
2023-04-09T02:51:28.483Z,4.03
2023-04-09T02:52:31.282Z,3.90
2023-04-09T02:53:34.094Z,3.85
2023-04-09T02:54:36.921Z,3.58
2023-04-09T02:55:44.956Z,3.30
2023-04-09T02:56:47.758Z,3.40
2023-04-09T02:57:50.727Z,3.40
2023-04-09T02:58:54.419Z,3.33
2023-04-09T02:59:57.602Z,3.53
2023-04-09T03:01:00.490Z,4.20
2023-04-09T03:02:03.527Z,3.30
2023-04-09T03:03:06.666Z,4.07
2023-04-09T03:04:09.645Z,3.42
2023-04-09T03:05:12.586Z,3.58
2023-04-09T03:06:15.561Z,3.35
2023-04-09T03:07:18.483Z,3.63
2023-04-09T03:08:21.283Z,3.22
2023-04-09T03:09:24.225Z,3.15
2023-04-09T03:10:27.020Z,3.13
2023-04-09T03:11:29.870Z,3.50
2023-04-09T03:12:32.648Z,3.25
2023-04-09T03:13:35.449Z,3.83
2023-04-09T03:14:38.219Z,3.67
2023-04-09T03:15:41.617Z,3.08
2023-04-09T03:16:44.489Z,3.28
2023-04-09T03:17:47.330Z,3.28
2023-04-09T03:18:50.229Z,3.58
2023-04-09T03:19:53.819Z,3.45
2023-04-09T03:20:57.023Z,3.28
2023-04-09T03:22:00.470Z,3.08
2023-04-09T03:23:06.080Z,3.25
2023-04-09T03:24:14.305Z,2.95
2023-04-09T03:25:19.793Z,3.45
2023-04-09T03:26:24.262Z,3.22
2023-04-09T03:27:27.185Z,3.13
2023-04-09T03:28:32.162Z,2.85
2023-04-09T03:29:34.960Z,2.85
2023-04-09T03:30:38.144Z,2.97
2023-04-09T03:31:42.272Z,3.22
2023-04-09T03:32:45.509Z,2.75
2023-04-09T03:33:49.465Z,3.35
2023-04-09T03:34:52.337Z,3.10
2023-04-09T03:35:57.641Z,3.30
2023-04-09T03:37:11.198Z,2.67
2023-04-09T03:38:14.730Z,2.97
2023-04-09T03:39:17.624Z,2.97
2023-04-09T03:40:21.305Z,3.00
2023-04-09T03:41:24.162Z,2.33
2023-04-09T03:42:27.526Z,4.05
2023-04-09T03:43:31.702Z,3.03
2023-04-09T03:44:34.468Z,3.47
2023-04-09T03:45:46.511Z,2.42
2023-04-09T03:46:56.387Z,3.17
2023-04-09T03:48:00.170Z,2.58
2023-04-09T03:49:03.011Z,2.75
2023-04-09T03:50:13.178Z,2.60
2023-04-09T03:51:23.528Z,2.60
2023-04-09T03:52:31.590Z,2.88
2023-04-09T03:53:40.676Z,2.90
2023-04-09T03:54:43.771Z,3.25
2023-04-09T03:55:59.380Z,3.08
2023-04-09T03:57:04.012Z,3.05
2023-04-09T03:58:06.792Z,2.88
2023-04-09T03:59:13.655Z,2.97
2023-04-09T04:00:20.367Z,2.78
2023-04-09T04:01:49.016Z,2.70
2023-04-09T04:02:52.882Z,2.85
2023-04-09T04:04:15.133Z,2.67
2023-04-09T04:06:28.097Z,2.45
2023-04-09T04:07:57.084Z,4.25
2023-04-09T04:09:03.765Z,3.08
2023-04-09T04:10:15.630Z,2.50
2023-04-09T04:11:21.209Z,3.78
2023-04-09T04:12:24.920Z,2.88
2023-04-09T04:13:43.689Z,2.13
2023-04-09T04:14:46.691Z,2.53
2023-04-09T04:15:59.363Z,2.42
2023-04-09T04:17:02.335Z,2.40
2023-04-09T04:18:06.490Z,3.08
2023-04-09T04:19:21.431Z,2.72
2023-04-09T04:20:27.062Z,3.50
2023-04-09T04:21:36.314Z,2.53
2023-04-09T04:22:39.169Z,3.40
2023-04-09T04:23:42.219Z,2.53
2023-04-09T04:24:53.741Z,2.45
2023-04-09T04:25:58.386Z,2.85
2023-04-09T04:27:07.077Z,2.95
2023-04-09T04:28:11.501Z,2.88
2023-04-09T04:29:17.455Z,2.33
2023-04-09T04:30:30.668Z,2.72
2023-04-09T04:31:40.756Z,2.38
2023-04-09T04:32:43.606Z,2.80
2023-04-09T04:33:47.673Z,2.53
2023-04-09T04:34:51.836Z,2.63
2023-04-09T04:36:10.703Z,3.00
2023-04-09T04:37:17.750Z,2.35
2023-04-09T04:38:20.765Z,2.47
2023-04-09T04:39:23.897Z,2.60
2023-04-09T04:40:32.003Z,2.85
2023-04-09T04:41:37.593Z,2.83
2023-04-09T04:42:50.487Z,2.38
2023-04-09T04:43:53.522Z,2.72
2023-04-09T04:44:58.873Z,2.65
2023-04-09T04:46:20.861Z,2.53
2023-04-09T04:47:24.208Z,2.60
2023-04-09T04:48:28.697Z,2.05
2023-04-09T04:49:31.942Z,2.60
2023-04-09T04:50:36.417Z,2.65
2023-04-09T04:51:42.806Z,2.83
2023-04-09T04:52:48.651Z,2.67
2023-04-09T04:53:51.426Z,2.45
2023-04-09T04:54:59.649Z,2.42
2023-04-09T04:56:02.617Z,3.03
2023-04-09T04:57:05.586Z,2.67
2023-04-09T04:58:17.033Z,2.63
2023-04-09T04:59:24.597Z,2.75
2023-04-09T05:00:37.591Z,2.25
2023-04-09T05:01:40.462Z,2.90
2023-04-09T05:02:46.818Z,2.22
2023-04-09T05:03:59.168Z,2.25
2023-04-09T05:05:08.636Z,2.17
2023-04-09T05:06:17.261Z,2.67
2023-04-09T05:07:21.412Z,2.58
2023-04-09T05:08:27.756Z,2.50
2023-04-09T05:09:32.161Z,2.35
2023-04-09T05:10:40.746Z,2.70
2023-04-09T05:11:43.557Z,2.40
2023-04-09T05:12:51.500Z,2.42
2023-04-09T05:15:09.347Z,2.10
2023-04-09T05:16:21.099Z,2.88
2023-04-09T05:17:35.728Z,2.47
2023-04-09T05:18:38.905Z,2.50
2023-04-09T05:19:41.780Z,3.17
2023-04-09T05:20:45.677Z,2.03
2023-04-09T05:21:48.752Z,2.28
2023-04-09T05:22:57.304Z,2.38
2023-04-09T05:24:06.588Z,2.45
2023-04-09T05:25:11.094Z,2.55
2023-04-09T05:26:16.639Z,2.47
2023-04-09T05:27:27.884Z,2.20
2023-04-09T05:28:35.924Z,2.85
2023-04-09T05:29:48.485Z,2.38
2023-04-09T05:30:51.841Z,2.38
2023-04-09T05:31:55.251Z,2.50
2023-04-09T05:33:03.754Z,2.13
2023-04-09T05:34:07.747Z,2.10
2023-04-09T05:35:15.423Z,2.58
2023-04-09T05:36:20.720Z,2.17
2023-04-09T05:37:23.477Z,2.17
2023-04-09T05:38:28.459Z,2.55
2023-04-09T05:39:34.363Z,2.53
2023-04-09T05:40:37.773Z,2.55
2023-04-09T05:41:46.798Z,2.45
2023-04-09T05:43:07.059Z,2.28
2023-04-09T05:44:16.922Z,2.75
2023-04-09T05:45:20.040Z,2.42
2023-04-09T05:46:27.652Z,2.70
2023-04-09T05:47:31.178Z,2.25
2023-04-09T05:48:40.736Z,2.55
2023-04-09T05:49:43.656Z,2.35
2023-04-09T05:50:55.468Z,2.28
2023-04-09T05:52:01.686Z,2.30
2023-04-09T05:53:07.852Z,2.28
2023-04-09T05:54:15.426Z,2.33
2023-04-09T05:55:23.379Z,1.80
2023-04-09T05:56:31.590Z,2.58
2023-04-09T05:57:34.397Z,2.33
2023-04-09T05:58:39.941Z,2.30
2023-04-09T05:59:42.798Z,2.58
2023-04-09T06:00:45.877Z,1.92
2023-04-09T06:01:48.718Z,3.17
2023-04-09T06:02:51.669Z,2.65
2023-04-09T06:03:57.754Z,2.33
2023-04-09T06:05:01.298Z,2.33
2023-04-09T06:06:04.168Z,2.25
2023-04-09T06:07:07.020Z,2.30
2023-04-09T06:08:09.831Z,2.90
2023-04-09T06:09:12.941Z,3.05
2023-04-09T06:10:15.818Z,2.63
2023-04-09T06:11:18.844Z,2.25
2023-04-09T06:12:21.822Z,2.70
2023-04-09T06:13:24.703Z,2.55
2023-04-09T06:14:27.512Z,2.17
2023-04-09T06:15:30.680Z,2.13
2023-04-09T06:16:33.841Z,2.40
2023-04-09T06:17:36.832Z,2.45
2023-04-09T06:18:39.697Z,2.20
2023-04-09T06:19:42.755Z,2.63
2023-04-09T06:20:45.553Z,2.33
2023-04-09T06:21:48.397Z,2.75
2023-04-09T06:22:51.239Z,1.63
2023-04-09T06:23:54.512Z,2.25
2023-04-09T06:24:57.610Z,2.20
2023-04-09T06:26:05.191Z,2.40
2023-04-09T06:27:08.158Z,2.33
2023-04-09T06:28:11.717Z,3.72
2023-04-09T06:29:14.534Z,2.33
2023-04-09T06:30:17.385Z,2.17
2023-04-09T06:31:20.257Z,2.30
2023-04-09T06:32:23.114Z,2.20
2023-04-09T06:33:26.262Z,2.25
2023-04-09T06:34:29.192Z,2.65
2023-04-09T06:35:32.169Z,2.75
2023-04-09T06:36:37.815Z,2.05
2023-04-09T06:37:40.611Z,2.65
2023-04-09T06:38:43.452Z,2.15
2023-04-09T06:39:58.095Z,1.83
2023-04-09T06:41:08.654Z,2.25
2023-04-09T06:42:11.468Z,2.17
2023-04-09T06:43:26.921Z,2.15
2023-04-09T06:44:30.570Z,2.08
2023-04-09T06:45:33.871Z,2.13
2023-04-09T06:46:36.665Z,2.42
2023-04-09T06:47:39.771Z,2.55
2023-04-09T06:48:43.657Z,2.08
2023-04-09T06:49:46.515Z,2.28
2023-04-09T06:50:49.405Z,2.75
2023-04-09T06:51:53.820Z,2.35
2023-04-09T06:52:57.524Z,2.67
2023-04-09T06:54:00.710Z,2.20
2023-04-09T06:55:09.242Z,3.00
2023-04-09T06:56:12.164Z,2.53
2023-04-09T06:57:14.989Z,2.25
2023-04-09T06:58:17.797Z,2.03
2023-04-09T06:59:20.582Z,2.03
2023-04-09T07:00:23.445Z,2.05
2023-04-09T07:01:26.817Z,2.08
2023-04-09T07:02:29.806Z,2.50
2023-04-09T07:03:32.873Z,3.05
2023-04-09T07:04:36.132Z,2.55
2023-04-09T07:05:38.983Z,2.60
2023-04-09T07:06:41.816Z,2.38
2023-04-09T07:07:44.679Z,2.30
2023-04-09T07:08:47.559Z,2.42
2023-04-09T07:09:51.541Z,2.60
2023-04-09T07:10:54.467Z,1.95
2023-04-09T07:11:57.316Z,2.15
2023-04-09T07:13:00.128Z,2.45
2023-04-09T07:14:02.959Z,2.13
2023-04-09T07:15:07.721Z,2.08
2023-04-09T07:16:10.572Z,2.95
2023-04-09T07:17:13.398Z,2.00
2023-04-09T07:18:16.328Z,2.28
2023-04-09T07:19:19.135Z,2.08
2023-04-09T07:20:21.976Z,1.95
2023-04-09T07:21:24.813Z,2.45
2023-04-09T07:22:29.958Z,1.95
2023-04-09T07:23:39.484Z,2.28
2023-04-09T07:24:42.854Z,2.28
2023-04-09T07:25:45.748Z,2.15
2023-04-09T07:26:49.973Z,2.50
2023-04-09T07:27:54.041Z,2.30
2023-04-09T07:28:57.092Z,2.88
2023-04-09T07:30:00.610Z,2.45
2023-04-09T07:31:04.050Z,2.30
2023-04-09T07:32:06.952Z,1.92
2023-04-09T07:33:09.790Z,2.63
2023-04-09T07:34:12.658Z,2.28
2023-04-09T07:35:15.668Z,2.30
2023-04-09T07:36:18.497Z,1.98
2023-04-09T07:37:21.831Z,1.92
2023-04-09T07:38:24.668Z,1.80
2023-04-09T07:39:27.960Z,2.50
2023-04-09T07:40:31.063Z,1.80
2023-04-09T07:41:33.817Z,1.80
2023-04-09T07:42:39.918Z,2.25
2023-04-09T07:43:42.817Z,1.73
2023-04-09T07:44:45.608Z,2.33
2023-04-09T07:45:53.964Z,1.73
2023-04-09T07:46:56.785Z,1.77
2023-04-09T07:47:59.676Z,2.47
2023-04-09T07:49:02.635Z,1.70
2023-04-09T07:50:06.239Z,1.60
2023-04-09T07:51:09.531Z,1.95
2023-04-09T07:52:12.344Z,1.80
2023-04-09T07:53:15.225Z,1.88
2023-04-09T07:54:18.051Z,1.75
2023-04-09T07:55:26.184Z,2.15
2023-04-09T07:56:28.994Z,2.15
2023-04-09T07:57:33.278Z,2.22
2023-04-09T07:58:38.407Z,2.22
2023-04-09T07:59:41.491Z,1.95
2023-04-09T08:00:44.574Z,1.83
2023-04-09T08:01:47.726Z,1.48
2023-04-09T08:02:51.274Z,1.70
2023-04-09T08:03:54.652Z,1.67
2023-04-09T08:04:58.122Z,1.85
2023-04-09T08:06:01.624Z,1.65
2023-04-09T08:07:04.696Z,2.13
2023-04-09T08:08:07.747Z,1.67
2023-04-09T08:09:11.464Z,2.05
2023-04-09T08:10:16.562Z,1.40
2023-04-09T08:11:25.490Z,1.90
2023-04-09T08:12:28.703Z,1.83
2023-04-09T08:13:31.777Z,1.75
2023-04-09T08:14:34.877Z,1.88
2023-04-09T08:15:38.279Z,2.20
2023-04-09T08:16:43.138Z,1.73
2023-04-09T08:17:46.709Z,1.95
2023-04-09T08:18:51.541Z,1.77
2023-04-09T08:19:54.876Z,2.05
2023-04-09T08:20:58.299Z,1.77
2023-04-09T08:22:02.222Z,1.55
2023-04-09T08:23:05.298Z,2.05
2023-04-09T08:24:08.493Z,1.75
2023-04-09T08:25:11.706Z,2.13
2023-04-09T08:26:14.757Z,2.30
2023-04-09T08:27:18.317Z,2.00
2023-04-09T08:28:22.130Z,1.77
2023-04-09T08:29:25.250Z,2.00
2023-04-09T08:30:28.617Z,1.85
2023-04-09T08:31:35.528Z,1.95
2023-04-09T08:32:38.635Z,2.13
2023-04-09T08:33:41.818Z,2.25
2023-04-09T08:34:44.909Z,1.60
2023-04-09T08:35:48.054Z,2.08
2023-04-09T08:36:51.568Z,1.95
2023-04-09T08:37:57.253Z,1.83
2023-04-09T08:39:00.936Z,2.30
2023-04-09T08:40:04.336Z,1.80
2023-04-09T08:41:07.439Z,2.17
2023-04-09T08:42:12.884Z,1.95
2023-04-09T08:43:17.019Z,1.95
2023-04-09T08:44:20.207Z,1.67
2023-04-09T08:45:23.531Z,1.73
2023-04-09T08:46:28.208Z,1.88
2023-04-09T08:47:33.124Z,2.22
2023-04-09T08:48:36.438Z,2.00
2023-04-09T08:49:42.622Z,1.90
2023-04-09T08:50:47.070Z,1.95
2023-04-09T08:51:50.220Z,1.48
2023-04-09T08:52:54.021Z,1.88
2023-04-09T08:54:01.359Z,2.33
2023-04-09T08:55:12.658Z,2.22
2023-04-09T08:56:16.186Z,1.75
2023-04-09T08:57:19.328Z,1.83
2023-04-09T08:58:22.282Z,2.30
2023-04-09T08:59:25.243Z,1.55
2023-04-09T09:00:28.432Z,1.67
2023-04-09T09:01:33.581Z,2.13
2023-04-09T09:02:37.102Z,2.10
2023-04-09T09:04:04.519Z,2.08
2023-04-09T09:05:07.900Z,2.08
2023-04-09T09:06:22.785Z,1.83
2023-04-09T09:07:26.061Z,2.22
2023-04-09T09:08:30.990Z,2.00
2023-04-09T09:09:58.335Z,2.00
2023-04-09T09:11:01.511Z,1.67
2023-04-09T09:12:04.595Z,1.80
2023-04-09T09:13:37.117Z,2.17
2023-04-09T09:14:40.256Z,1.60
2023-04-09T09:15:43.596Z,1.95
2023-04-09T09:16:58.971Z,2.10
2023-04-09T09:18:02.218Z,1.77
2023-04-09T09:19:05.289Z,2.00
2023-04-09T09:20:21.900Z,1.90
2023-04-09T09:21:28.940Z,1.88
2023-04-09T09:22:55.177Z,1.92
2023-04-09T09:23:58.948Z,1.88
2023-04-09T09:25:02.077Z,1.75
2023-04-09T09:26:26.129Z,2.42
2023-04-09T09:27:33.810Z,2.13
2023-04-09T09:28:37.516Z,2.75
2023-04-09T09:29:43.367Z,1.92
2023-04-09T09:30:49.209Z,2.05
2023-04-09T09:31:56.746Z,2.08
2023-04-09T09:34:10.502Z,2.47
2023-04-09T09:35:13.670Z,1.90
2023-04-09T09:36:16.982Z,1.75
2023-04-09T09:37:30.005Z,1.70
2023-04-09T09:38:33.137Z,2.08
2023-04-09T09:39:45.142Z,2.45
2023-04-09T09:40:48.357Z,2.17
2023-04-09T09:42:08.471Z,2.00
2023-04-09T09:43:13.535Z,1.95
2023-04-09T09:44:34.086Z,2.30
2023-04-09T09:45:38.008Z,2.55
2023-04-09T09:46:42.803Z,1.73
2023-04-09T09:47:46.942Z,2.15
2023-04-09T09:48:50.218Z,2.00
2023-04-09T09:49:53.636Z,2.03
2023-04-09T09:50:57.247Z,1.90
2023-04-09T09:52:03.282Z,2.08
2023-04-09T09:53:07.892Z,2.03
2023-04-09T09:54:13.301Z,2.05
2023-04-09T09:55:24.650Z,2.05
2023-04-09T09:56:33.809Z,2.05
2023-04-09T09:57:42.191Z,1.77
2023-04-09T09:59:00.907Z,1.95
2023-04-09T10:00:05.167Z,1.70
2023-04-09T10:01:19.997Z,1.88
2023-04-09T10:02:31.256Z,2.05
2023-04-09T10:03:37.818Z,1.95
2023-04-09T10:04:42.019Z,1.98
2023-04-09T10:05:46.198Z,2.03
2023-04-09T10:06:52.191Z,1.85
2023-04-09T10:08:01.174Z,2.30
2023-04-09T10:09:07.064Z,1.70
2023-04-09T10:10:10.626Z,1.98
2023-04-09T10:11:13.752Z,2.08
2023-04-09T10:12:18.155Z,1.63
2023-04-09T10:13:30.017Z,2.25
2023-04-09T10:14:34.757Z,2.30
2023-04-09T10:15:38.787Z,2.03
2023-04-09T10:16:42.303Z,2.63
2023-04-09T10:17:46.507Z,2.28
2023-04-09T10:18:49.827Z,2.20
2023-04-09T10:20:06.003Z,2.00
2023-04-09T10:21:21.059Z,2.03
2023-04-09T10:22:27.789Z,2.25
2023-04-09T10:23:40.744Z,2.03
2023-04-09T10:24:44.475Z,2.33
2023-04-09T10:25:48.026Z,1.85
2023-04-09T10:26:55.741Z,1.75
2023-04-09T10:28:02.855Z,2.60
2023-04-09T10:29:14.067Z,1.73
2023-04-09T10:30:37.004Z,2.22
2023-04-09T10:31:48.108Z,2.00
2023-04-09T10:32:53.593Z,1.80
2023-04-09T10:34:04.787Z,2.13
2023-04-09T10:35:10.139Z,1.95
2023-04-09T10:36:13.743Z,1.95
2023-04-09T10:37:25.485Z,1.75
2023-04-09T10:38:38.893Z,2.17
2023-04-09T10:39:46.585Z,1.73
2023-04-09T10:40:51.346Z,2.10
2023-04-09T10:41:55.883Z,1.65
2023-04-09T10:43:00.716Z,1.98
2023-04-09T10:44:07.836Z,1.95
2023-04-09T10:45:17.230Z,1.90
2023-04-09T10:46:31.574Z,2.08
2023-04-09T10:47:37.330Z,1.50
2023-04-09T10:48:40.718Z,1.95
2023-04-09T10:49:44.894Z,1.77
2023-04-09T10:50:51.561Z,3.03
2023-04-09T10:52:14.123Z,1.85
2023-04-09T10:53:24.793Z,1.95
2023-04-09T10:54:37.601Z,1.70
2023-04-09T10:55:53.041Z,1.70
2023-04-09T10:57:08.071Z,2.10
2023-04-09T10:58:13.548Z,1.85
2023-04-09T10:59:17.178Z,1.92
2023-04-09T11:00:20.507Z,1.60
2023-04-09T11:01:24.510Z,1.77
2023-04-09T11:02:39.985Z,1.70
2023-04-09T11:03:47.290Z,1.65
2023-04-09T11:05:05.731Z,2.53
2023-04-09T11:06:11.261Z,1.65
2023-04-09T11:07:18.325Z,1.55
2023-04-09T11:08:22.490Z,1.58
2023-04-09T11:09:25.652Z,1.63
2023-04-09T11:10:28.899Z,2.08
2023-04-09T11:11:32.513Z,1.73
2023-04-09T11:12:35.815Z,1.42
2023-04-09T11:13:41.999Z,1.73
2023-04-09T11:14:45.302Z,1.65
2023-04-09T11:15:48.551Z,1.48
2023-04-09T11:16:51.896Z,1.45
2023-04-09T11:17:55.425Z,1.45
2023-04-09T11:18:58.767Z,1.25
2023-04-09T11:20:04.043Z,1.60
2023-04-09T11:21:07.641Z,1.70
2023-04-09T11:22:11.200Z,1.52
2023-04-09T11:23:14.683Z,1.98
2023-04-09T11:24:19.568Z,1.95
2023-04-09T11:25:31.972Z,1.40
2023-04-09T11:26:38.287Z,1.13
2023-04-09T11:27:46.887Z,1.85
2023-04-09T11:28:50.788Z,0.95
2023-04-09T11:29:57.555Z,1.38
2023-04-09T11:31:01.008Z,1.02
2023-04-09T11:32:07.756Z,1.10
2023-04-09T11:33:11.118Z,1.23
2023-04-09T11:34:14.389Z,1.15
2023-04-09T11:35:22.467Z,1.23
2023-04-09T11:36:27.949Z,1.42
2023-04-09T11:37:31.366Z,1.83
2023-04-09T11:38:34.768Z,1.02
2023-04-09T11:39:38.483Z,1.13
2023-04-09T11:40:49.923Z,1.35
2023-04-09T11:41:53.106Z,1.35
2023-04-09T11:42:58.180Z,1.42
2023-04-09T11:44:04.559Z,1.30
2023-04-09T11:45:09.936Z,1.25
2023-04-09T11:46:13.236Z,1.55
2023-04-09T11:47:19.968Z,1.15
2023-04-09T11:48:25.245Z,1.52
2023-04-09T11:49:28.470Z,1.13
2023-04-09T11:50:32.702Z,1.23
2023-04-09T11:51:36.603Z,1.10
2023-04-09T11:52:41.642Z,1.67
2023-04-09T11:53:44.925Z,1.55
2023-04-09T11:54:51.144Z,1.10
2023-04-09T11:56:03.314Z,1.52
2023-04-09T11:57:08.251Z,1.45
2023-04-09T11:58:12.031Z,1.73
2023-04-09T11:59:16.134Z,1.17
2023-04-09T12:00:20.368Z,1.27
2023-04-09T12:01:25.224Z,1.55
2023-04-09T12:02:30.808Z,1.20
2023-04-09T12:03:35.079Z,1.52
2023-04-09T12:04:38.610Z,1.42
2023-04-09T12:05:51.223Z,1.48
2023-04-09T12:06:59.225Z,1.02
2023-04-09T12:08:08.946Z,1.10
2023-04-09T12:09:14.766Z,1.13
2023-04-09T12:10:18.291Z,1.02
2023-04-09T12:11:21.611Z,1.27
2023-04-09T12:12:26.060Z,1.10
2023-04-09T12:13:36.994Z,1.30
2023-04-09T12:14:48.527Z,1.15
2023-04-09T12:15:52.803Z,1.10
2023-04-09T12:16:56.191Z,0.90
2023-04-09T12:17:59.630Z,1.20
2023-04-09T12:19:05.070Z,1.25
2023-04-09T12:20:10.340Z,1.15
2023-04-09T12:21:19.774Z,1.30
2023-04-09T12:22:23.006Z,1.00
2023-04-09T12:23:28.425Z,1.30
2023-04-09T12:24:32.805Z,2.13
2023-04-09T12:25:38.483Z,1.70
2023-04-09T12:26:41.635Z,1.05
2023-04-09T12:27:46.929Z,1.45
2023-04-09T12:28:50.292Z,1.52
2023-04-09T12:29:57.643Z,1.40
2023-04-09T12:31:01.111Z,1.52
2023-04-09T12:32:07.132Z,1.63
2023-04-09T12:33:11.318Z,1.02
2023-04-09T12:34:15.155Z,1.33
2023-04-09T12:35:18.541Z,0.82
2023-04-09T12:36:21.830Z,0.93
2023-04-09T12:37:25.103Z,1.00
2023-04-09T12:38:28.250Z,1.45
2023-04-09T12:39:32.624Z,1.35
2023-04-09T12:40:37.481Z,1.25
2023-04-09T12:41:40.819Z,0.98
2023-04-09T12:42:45.774Z,1.33
2023-04-09T12:43:49.787Z,1.00
2023-04-09T12:45:15.824Z,1.67
2023-04-09T12:46:20.479Z,1.08
2023-04-09T12:47:44.251Z,0.88
2023-04-09T12:49:06.551Z,1.25
2023-04-09T12:50:11.546Z,1.55
2023-04-09T12:51:17.623Z,0.80
2023-04-09T12:52:41.096Z,1.35
2023-04-09T12:53:44.321Z,1.17
2023-04-09T12:55:16.139Z,1.00
2023-04-09T12:56:19.402Z,1.02
2023-04-09T12:57:45.823Z,1.75
2023-04-09T12:58:49.111Z,1.00
2023-04-09T12:59:52.260Z,0.88
2023-04-09T13:01:01.831Z,1.00
2023-04-09T13:02:14.531Z,1.63
2023-04-09T13:03:21.711Z,1.52
2023-04-09T13:04:25.280Z,1.08
2023-04-09T13:05:36.032Z,1.60
2023-04-09T13:06:39.142Z,0.95
2023-04-09T13:07:43.720Z,1.60
2023-04-09T13:08:49.696Z,1.55
2023-04-09T13:10:12.861Z,1.33
2023-04-09T13:11:35.953Z,1.27
2023-04-09T13:12:39.645Z,1.33
2023-04-09T13:14:02.833Z,1.17
2023-04-09T13:15:06.956Z,1.00
2023-04-09T13:16:30.251Z,1.55
2023-04-09T13:17:33.728Z,0.90
2023-04-09T13:18:42.079Z,1.10
2023-04-09T13:19:48.408Z,1.23
2023-04-09T13:20:51.917Z,1.42
2023-04-09T13:21:55.334Z,1.67
2023-04-09T13:23:04.254Z,1.13
2023-04-09T13:24:10.406Z,1.00
2023-04-09T13:25:14.797Z,1.40
2023-04-09T13:26:18.401Z,1.08
2023-04-09T13:27:41.607Z,1.42
2023-04-09T13:29:04.870Z,1.15
2023-04-09T13:30:08.811Z,1.00
2023-04-09T13:31:15.351Z,1.67
2023-04-09T13:32:23.861Z,1.20
2023-04-09T13:33:32.890Z,0.90
2023-04-09T13:34:36.342Z,1.00
2023-04-09T13:35:46.393Z,1.13
2023-04-09T13:36:49.780Z,0.93
2023-04-09T13:37:52.995Z,1.67
2023-04-09T13:38:56.663Z,0.95
2023-04-09T13:40:18.779Z,1.10
2023-04-09T13:41:41.036Z,1.13
2023-04-09T13:43:02.764Z,1.35
2023-04-09T13:44:25.945Z,1.02
2023-04-09T13:45:47.841Z,1.00
2023-04-09T13:47:11.630Z,1.27
2023-04-09T13:48:33.508Z,0.85
2023-04-09T13:49:55.191Z,0.80
2023-04-09T13:51:17.131Z,0.82
2023-04-09T13:52:39.124Z,1.08
2023-04-09T13:54:01.204Z,1.10
2023-04-09T13:55:28.497Z,0.85
2023-04-09T13:56:51.691Z,0.95
2023-04-09T13:58:13.553Z,0.90
2023-04-09T13:59:16.874Z,1.00
2023-04-09T14:00:21.090Z,0.77
2023-04-09T14:01:24.629Z,0.90
2023-04-09T14:02:29.071Z,1.05
2023-04-09T14:03:32.441Z,0.77
2023-04-09T14:04:36.432Z,1.15
2023-04-09T14:05:39.682Z,0.93
2023-04-09T14:06:43.324Z,1.00
2023-04-09T14:07:46.658Z,1.00
2023-04-09T14:08:49.837Z,0.70
2023-04-09T14:09:53.165Z,1.48
2023-04-09T14:10:57.202Z,0.98
2023-04-09T14:12:00.343Z,0.73
2023-04-09T14:13:06.835Z,0.98
2023-04-09T14:14:11.030Z,1.17
2023-04-09T14:15:14.235Z,0.95
2023-04-09T14:16:17.364Z,0.90
2023-04-09T14:17:20.586Z,1.45
2023-04-09T14:18:23.824Z,0.80
2023-04-09T14:19:26.854Z,0.88
2023-04-09T14:20:29.994Z,0.73
2023-04-09T14:21:33.793Z,1.13
2023-04-09T14:22:37.021Z,1.33
2023-04-09T14:23:40.840Z,0.90
2023-04-09T14:24:43.968Z,1.00
2023-04-09T14:25:46.983Z,0.93
2023-04-09T14:26:53.620Z,1.10
2023-04-09T14:27:57.391Z,1.25
2023-04-09T14:29:00.919Z,1.30
2023-04-09T14:30:04.675Z,0.95
2023-04-09T14:31:07.966Z,1.10
2023-04-09T14:32:11.308Z,1.23
2023-04-09T14:33:14.461Z,1.08
2023-04-09T14:34:17.678Z,1.20
2023-04-09T14:35:21.361Z,1.02
2023-04-09T14:36:25.278Z,1.20
2023-04-09T14:37:28.817Z,1.02
2023-04-09T14:38:31.968Z,1.30
2023-04-09T14:39:35.298Z,1.83
2023-04-09T14:40:38.445Z,1.05
2023-04-09T14:41:41.955Z,1.40
2023-04-09T14:42:46.291Z,0.85
2023-04-09T14:43:49.582Z,1.02
2023-04-09T14:44:52.623Z,1.05
2023-04-09T14:45:55.729Z,1.05
2023-04-09T14:47:00.255Z,0.93